Glennville, California
Current Conditions -  °F | °C
As of 4:54 AM on Thursday 30 Oct 2014 (Local Time) from KBFL Reporting Station
Clear Clear  
Wind Chill: 60°   Ceiling: Unl
Heat Index: 60°   Visibility: 9mi
Dew Point: 42°   Wind: 0mph
Humidity: 51%   Direction: NA
Pressure: 29.97"   Gusts: NA
Location:  35.73°N, 118.7°W
Report Text: KBFL 301154Z 00000KT 9SM CLR 16/06 A2997 RMK AO2 SLP143 T01560056 10178 20139 58011
Loading
Personal Weather Stations






























Interactive Weather Map
Tropical Storm Tracking
New forecast layout! Learn more

10-Day Weather Forecast

Advertisements
Track Severe Weather on mobile